Time;durP1;ratioP1;P1;durP2;ratioP2;P2;SDS_P1;SDS_P2;PMS_P1;PMS_P2;Temp;Humidity;BMP_temperature;BMP_pressure;BME280_temperature;BME280_humidity;BME280_pressure;Samples;Min_cycle;Max_cycle;Signal;HPM_P1;HPM_P2
2022/01/17 00:00:06;;;;;;;26.10;14.82;;;;;;;;;;10450333;28;20218;-66
2022/01/17 00:05:09;;;;;;;21.17;14.00;;;;;;;;;;10449406;28;20222;-67
2022/01/17 00:10:10;;;;;;;22.40;14.32;;;;;;;;;;10447562;28;20194;-67
2022/01/17 00:15:29;;;;;;;23.27;12.80;;;;;;;;;;10445091;28;20205;-67
2022/01/17 00:20:30;;;;;;;23.13;14.02;;;;;;;;;;10453267;28;20209;-65
2022/01/17 00:25:31;;;;;;;25.23;11.98;;;;;;;;;;10455817;28;20229;-67
2022/01/17 00:30:32;;;;;;;19.98;11.32;;;;;;;;;;10453675;28;20325;-67
2022/01/17 00:35:33;;;;;;;21.08;11.40;;;;;;;;;;10453626;28;20893;-66
2022/01/17 00:40:34;;;;;;;13.98;9.15;;;;;;;;;;10452194;28;20245;-66
2022/01/17 00:45:38;;;;;;;17.67;8.27;;;;;;;;;;10450667;28;20194;-66
2022/01/17 00:50:40;;;;;;;11.45;7.47;;;;;;;;;;10449829;28;20269;-66
2022/01/17 00:55:41;;;;;;;10.80;6.03;;;;;;;;;;10453145;28;20198;-66
2022/01/17 01:00:42;;;;;;;9.25;6.25;;;;;;;;;;10450124;28;20383;-66
2022/01/17 01:05:43;;;;;;;10.23;5.68;;;;;;;;;;10450901;28;20195;-67
2022/01/17 01:10:44;;;;;;;11.98;6.60;;;;;;;;;;10453631;28;20191;-67
2022/01/17 01:15:58;;;;;;;12.77;8.20;;;;;;;;;;10456114;28;20205;-67
2022/01/17 01:31:45;;;;;;;10.23;7.32;;;;;;;;;;10459401;28;20658;-66
2022/01/17 01:36:48;;;;;;;10.75;7.88;;;;;;;;;;10442238;28;20587;-67
2022/01/17 01:41:50;;;;;;;8.70;6.53;;;;;;;;;;10455527;28;20312;-66
2022/01/17 01:46:52;;;;;;;10.90;5.72;;;;;;;;;;10455305;28;20198;-67
2022/01/17 01:51:53;;;;;;;10.52;5.10;;;;;;;;;;10453277;28;24404;-66
2022/01/17 01:56:54;;;;;;;9.35;5.68;;;;;;;;;;10455095;28;20693;-67
2022/01/17 02:01:55;;;;;;;6.28;4.20;;;;;;;;;;10453741;28;20316;-66
2022/01/17 02:06:56;;;;;;;8.25;3.92;;;;;;;;;;10454334;28;20191;-66
2022/01/17 02:11:57;;;;;;;9.35;4.55;;;;;;;;;;10450860;28;20190;-66
2022/01/17 02:17:03;;;;;;;5.32;4.13;;;;;;;;;;10453370;28;20190;-66
2022/01/17 02:22:04;;;;;;;4.88;3.42;;;;;;;;;;10452555;28;20213;-66
2022/01/17 02:27:05;;;;;;;3.42;2.50;;;;;;;;;;10454301;28;20202;-66
2022/01/17 02:32:06;;;;;;;6.47;2.72;;;;;;;;;;10451500;28;20210;-66
2022/01/17 02:37:08;;;;;;;2.40;1.10;;;;;;;;;;10451419;28;20197;-67
2022/01/17 02:42:11;;;;;;;2.08;0.75;;;;;;;;;;10452150;28;20325;-67
2022/01/17 02:47:15;;;;;;;2.03;0.50;;;;;;;;;;10447379;28;20207;-67
2022/01/17 02:52:19;;;;;;;4.18;0.45;;;;;;;;;;10445617;28;20662;-66
2022/01/17 02:57:20;;;;;;;3.55;0.82;;;;;;;;;;10444557;28;20208;-65
2022/01/17 03:02:21;;;;;;;1.67;0.80;;;;;;;;;;10448290;28;20222;-66
2022/01/17 03:07:23;;;;;;;6.45;0.85;;;;;;;;;;10447007;28;20190;-67
2022/01/17 03:12:24;;;;;;;5.10;0.90;;;;;;;;;;10438168;28;20254;-66
2022/01/17 03:17:25;;;;;;;1.77;0.60;;;;;;;;;;10445689;28;20190;-66
2022/01/17 03:22:26;;;;;;;4.60;0.63;;;;;;;;;;10452094;28;20297;-66
2022/01/17 03:27:27;;;;;;;8.40;0.90;;;;;;;;;;10451143;28;20187;-66
2022/01/17 03:32:28;;;;;;;8.45;0.82;;;;;;;;;;10449999;28;20714;-65
2022/01/17 03:37:29;;;;;;;6.32;1.00;;;;;;;;;;10451601;28;20206;-66
2022/01/17 03:42:30;;;;;;;5.88;0.90;;;;;;;;;;10443086;28;20217;-66
2022/01/17 03:47:31;;;;;;;8.88;0.90;;;;;;;;;;10446386;28;20326;-66
2022/01/17 03:52:32;;;;;;;9.45;0.98;;;;;;;;;;10447863;28;20217;-66
2022/01/17 03:57:33;;;;;;;7.13;1.00;;;;;;;;;;10447314;28;20791;-66
2022/01/17 04:02:34;;;;;;;4.32;1.45;;;;;;;;;;10440187;28;20225;-65
2022/01/17 04:07:36;;;;;;;9.35;1.02;;;;;;;;;;10441636;28;20199;-66
2022/01/17 04:12:37;;;;;;;7.63;1.08;;;;;;;;;;10441184;28;20191;-66
2022/01/17 04:17:40;;;;;;;4.35;1.30;;;;;;;;;;10441302;28;20198;-66
2022/01/17 04:22:50;;;;;;;7.03;0.93;;;;;;;;;;10444627;28;20218;-66
2022/01/17 04:27:52;;;;;;;6.68;0.82;;;;;;;;;;10447665;28;20567;-66
2022/01/17 04:32:54;;;;;;;9.48;0.90;;;;;;;;;;10440955;28;20206;-66
2022/01/17 04:37:59;;;;;;;5.82;0.75;;;;;;;;;;10439516;28;20222;-66
2022/01/17 04:43:02;;;;;;;6.75;0.77;;;;;;;;;;10448000;28;20578;-65
2022/01/17 04:48:03;;;;;;;9.07;1.00;;;;;;;;;;10461301;28;20305;-66
2022/01/17 04:53:06;;;;;;;7.07;1.23;;;;;;;;;;10455318;28;20285;-66
2022/01/17 04:58:07;;;;;;;7.40;0.93;;;;;;;;;;10449936;28;20273;-66
2022/01/17 05:03:08;;;;;;;7.22;1.00;;;;;;;;;;10448235;28;20331;-65
2022/01/17 05:08:10;;;;;;;3.42;1.48;;;;;;;;;;10450479;28;20190;-65
2022/01/17 05:13:16;;;;;;;9.15;1.45;;;;;;;;;;10446245;28;20277;-65
2022/01/17 05:19:47;;;;;;;9.15;1.10;;;;;;;;;;10449834;28;20183;-66
2022/01/17 05:23:45;;;;;;;5.78;1.08;;;;;;;;;;10447782;28;20335;-66
2022/01/17 05:28:46;;;;;;;14.85;1.10;;;;;;;;;;10444927;28;21122;-66
2022/01/17 05:33:47;;;;;;;3.75;1.20;;;;;;;;;;10443263;28;20229;-65
2022/01/17 05:38:48;;;;;;;6.95;1.45;;;;;;;;;;10442519;28;20222;-65
2022/01/17 05:43:49;;;;;;;7.25;1.42;;;;;;;;;;10451136;28;20264;-65
2022/01/17 05:48:50;;;;;;;5.32;1.30;;;;;;;;;;10450613;28;20259;-65
2022/01/17 05:53:51;;;;;;;7.53;1.25;;;;;;;;;;10451487;28;20208;-65
2022/01/17 05:58:53;;;;;;;3.50;1.50;;;;;;;;;;10446502;28;20315;-65
2022/01/17 06:03:54;;;;;;;3.92;0.98;;;;;;;;;;10444097;28;20254;-65
2022/01/17 06:08:55;;;;;;;5.03;1.17;;;;;;;;;;10446057;28;20277;-65
2022/01/17 06:13:59;;;;;;;13.57;1.58;;;;;;;;;;10443749;28;20789;-65
2022/01/17 06:19:00;;;;;;;5.10;1.10;;;;;;;;;;10448050;28;20217;-64
2022/01/17 06:24:02;;;;;;;8.15;1.90;;;;;;;;;;10448847;28;20207;-66
2022/01/17 06:29:04;;;;;;;3.50;0.80;;;;;;;;;;10447972;28;20234;-66
2022/01/17 06:34:05;;;;;;;6.85;1.63;;;;;;;;;;10451568;28;20214;-66
2022/01/17 06:39:07;;;;;;;5.88;1.20;;;;;;;;;;10447851;28;20309;-66
2022/01/17 06:44:08;;;;;;;9.10;1.30;;;;;;;;;;10454779;28;20217;-67
2022/01/17 06:49:09;;;;;;;7.18;1.40;;;;;;;;;;10447978;28;20222;-65
2022/01/17 06:54:10;;;;;;;4.57;1.30;;;;;;;;;;10444614;28;20209;-65
2022/01/17 06:59:12;;;;;;;9.32;1.52;;;;;;;;;;10450458;28;20218;-65
2022/01/17 07:04:13;;;;;;;8.95;1.17;;;;;;;;;;10447504;28;20219;-64
2022/01/17 07:09:16;;;;;;;7.70;1.70;;;;;;;;;;10455089;28;20186;-65
2022/01/17 07:14:18;;;;;;;9.43;1.73;;;;;;;;;;10454853;28;20208;-65
2022/01/17 07:19:19;;;;;;;5.53;1.27;;;;;;;;;;10456156;28;20226;-66
2022/01/17 07:24:20;;;;;;;8.93;1.77;;;;;;;;;;10454567;28;20190;-66
2022/01/17 07:29:21;;;;;;;9.25;1.38;;;;;;;;;;10448792;28;20194;-65
2022/01/17 07:34:23;;;;;;;5.78;1.27;;;;;;;;;;10457889;28;20213;-65
2022/01/17 07:39:24;;;;;;;4.50;0.90;;;;;;;;;;10446720;28;20214;-64
2022/01/17 07:44:27;;;;;;;5.07;1.00;;;;;;;;;;10444382;28;20193;-66
2022/01/17 07:49:28;;;;;;;6.78;1.05;;;;;;;;;;10447314;28;20301;-66
2022/01/17 07:54:31;;;;;;;5.45;1.35;;;;;;;;;;10449348;28;20986;-65
2022/01/17 07:59:32;;;;;;;6.43;1.20;;;;;;;;;;10449715;28;20214;-66
2022/01/17 08:04:33;;;;;;;7.35;1.75;;;;;;;;;;10455431;28;20255;-66
2022/01/17 08:09:35;;;;;;;10.25;1.58;;;;;;;;;;10453244;28;20284;-65
2022/01/17 08:14:36;;;;;;;5.47;1.80;;;;;;;;;;10448484;28;20237;-65
2022/01/17 08:19:38;;;;;;;6.40;1.30;;;;;;;;;;10450744;28;20209;-66
2022/01/17 08:24:39;;;;;;;4.78;1.13;;;;;;;;;;10448169;28;20776;-66
2022/01/17 08:29:40;;;;;;;6.03;1.00;;;;;;;;;;10449710;28;20198;-65
2022/01/17 08:34:41;;;;;;;4.38;1.77;;;;;;;;;;10447513;28;20218;-64
2022/01/17 08:39:42;;;;;;;3.90;0.88;;;;;;;;;;10441886;28;20221;-65
2022/01/17 08:44:49;;;;;;;4.40;1.95;;;;;;;;;;10446998;28;20198;-66
2022/01/17 08:49:51;;;;;;;4.28;1.20;;;;;;;;;;10422285;28;20235;-65
2022/01/17 08:54:53;;;;;;;4.53;1.38;;;;;;;;;;10405574;28;20195;-64
2022/01/17 08:59:54;;;;;;;4.68;1.27;;;;;;;;;;10402584;28;20225;-65
2022/01/17 09:04:55;;;;;;;6.68;1.65;;;;;;;;;;10402876;28;20215;-65
2022/01/17 09:09:56;;;;;;;3.83;1.23;;;;;;;;;;10403608;28;20203;-65
2022/01/17 09:14:58;;;;;;;3.40;1.15;;;;;;;;;;10404171;28;20789;-64
2022/01/17 09:19:59;;;;;;;2.65;1.00;;;;;;;;;;10405072;28;20684;-65
2022/01/17 09:25:00;;;;;;;5.05;1.20;;;;;;;;;;10401705;28;21990;-65
2022/01/17 09:30:03;;;;;;;5.78;0.98;;;;;;;;;;10411324;28;20199;-65
2022/01/17 09:35:06;;;;;;;3.33;0.98;;;;;;;;;;10405664;28;20266;-66
2022/01/17 09:40:08;;;;;;;1.95;1.20;;;;;;;;;;10414663;28;20223;-65
2022/01/17 09:45:10;;;;;;;2.40;0.90;;;;;;;;;;10414475;28;20249;-65
2022/01/17 09:50:13;;;;;;;1.30;1.20;;;;;;;;;;10434069;28;20272;-64
2022/01/17 09:55:21;;;;;;;2.88;1.50;;;;;;;;;;10455338;28;20205;-64
2022/01/17 10:00:26;;;;;;;1.83;1.40;;;;;;;;;;10457483;28;20621;-65
2022/01/17 10:05:27;;;;;;;2.60;1.35;;;;;;;;;;10450574;28;20233;-64
2022/01/17 10:10:35;;;;;;;2.70;1.42;;;;;;;;;;10445427;28;20209;-62
2022/01/17 10:15:46;;;;;;;1.88;1.00;;;;;;;;;;10453866;28;20182;-64
2022/01/17 10:20:52;;;;;;;5.10;1.67;;;;;;;;;;10448175;28;20206;-62
2022/01/17 10:26:07;;;;;;;3.00;1.58;;;;;;;;;;10457793;28;20190;-63
2022/01/17 10:34:52;;;;;;;4.38;1.08;;;;;;;;;;10458648;28;20221;-64
2022/01/17 10:36:44;;;;;;;5.43;1.70;;;;;;;;;;10432923;28;20742;-64
2022/01/17 10:41:45;;;;;;;4.93;1.80;;;;;;;;;;10453017;28;20238;-65
2022/01/17 10:46:46;;;;;;;7.00;2.08;;;;;;;;;;10450011;28;20189;-64
2022/01/17 10:51:48;;;;;;;5.32;2.10;;;;;;;;;;10449477;28;20577;-65
2022/01/17 10:56:59;;;;;;;6.32;2.60;;;;;;;;;;10453864;28;20288;-64
2022/01/17 11:02:00;;;;;;;12.38;2.17;;;;;;;;;;10451304;28;20222;-64
2022/01/17 11:07:08;;;;;;;6.40;1.80;;;;;;;;;;10447507;28;20680;-65
2022/01/17 11:12:12;;;;;;;7.50;2.30;;;;;;;;;;10447836;28;20222;-66
2022/01/17 11:17:36;;;;;;;3.70;1.90;;;;;;;;;;10450879;28;20274;-65
2022/01/17 11:22:41;;;;;;;3.33;1.15;;;;;;;;;;10449618;28;20218;-65
2022/01/17 11:27:42;;;;;;;1.63;1.20;;;;;;;;;;10450543;28;20210;-65
2022/01/17 11:32:48;;;;;;;2.58;1.08;;;;;;;;;;10453628;28;20214;-65
2022/01/17 11:38:00;;;;;;;9.90;1.98;;;;;;;;;;10451446;28;20321;-67
2022/01/17 11:43:03;;;;;;;2.40;1.52;;;;;;;;;;10444793;28;20268;-67
2022/01/17 11:48:07;;;;;;;4.28;1.00;;;;;;;;;;10446592;28;20218;-68
2022/01/17 11:53:08;;;;;;;1.70;1.05;;;;;;;;;;10451011;28;20216;-66
2022/01/17 11:58:24;;;;;;;2.67;0.80;;;;;;;;;;10451763;28;20568;-65
2022/01/17 12:03:35;;;;;;;4.40;0.75;;;;;;;;;;10448905;28;20226;-65
2022/01/17 12:08:36;;;;;;;3.88;1.33;;;;;;;;;;10450761;28;20667;-65
2022/01/17 12:13:40;;;;;;;5.50;1.20;;;;;;;;;;10443192;28;20202;-65
2022/01/17 12:18:41;;;;;;;2.03;0.70;;;;;;;;;;10439642;28;20211;-65
2022/01/17 12:23:42;;;;;;;3.72;0.60;;;;;;;;;;10449228;28;20195;-65
2022/01/17 12:28:54;;;;;;;3.22;0.90;;;;;;;;;;10451254;28;20200;-64
2022/01/17 12:34:13;;;;;;;5.53;0.88;;;;;;;;;;10447547;28;20217;-65
2022/01/17 12:39:21;;;;;;;2.35;0.60;;;;;;;;;;10449623;28;20272;-66
2022/01/17 12:44:26;;;;;;;1.45;0.63;;;;;;;;;;10442388;28;20190;-65
2022/01/17 12:49:30;;;;;;;3.17;0.68;;;;;;;;;;10446599;28;20222;-66
2022/01/17 12:54:33;;;;;;;2.90;0.50;;;;;;;;;;10444349;28;20205;-64
2022/01/17 12:59:34;;;;;;;7.90;1.25;;;;;;;;;;10448370;28;20222;-65
2022/01/17 13:04:35;;;;;;;3.83;1.05;;;;;;;;;;10452745;28;20234;-65
2022/01/17 13:09:40;;;;;;;5.38;0.73;;;;;;;;;;10453025;28;20191;-65
2022/01/17 13:14:41;;;;;;;6.85;0.95;;;;;;;;;;10447600;28;20202;-64
2022/01/17 13:19:42;;;;;;;5.43;1.38;;;;;;;;;;10449968;28;20297;-66
2022/01/17 13:24:51;;;;;;;5.15;0.90;;;;;;;;;;10453514;28;20209;-64
2022/01/17 13:29:53;;;;;;;21.95;1.70;;;;;;;;;;10450053;28;20656;-66
2022/01/17 13:34:57;;;;;;;6.25;0.95;;;;;;;;;;10445417;28;20297;-65
2022/01/17 13:39:58;;;;;;;10.25;0.90;;;;;;;;;;10455139;28;20652;-65
2022/01/17 13:44:59;;;;;;;11.02;1.45;;;;;;;;;;10453920;28;20322;-64
2022/01/17 13:50:00;;;;;;;10.30;1.50;;;;;;;;;;10451461;28;20265;-65
2022/01/17 13:55:01;;;;;;;8.20;1.50;;;;;;;;;;10451938;28;20191;-65
2022/01/17 14:00:07;;;;;;;11.07;1.67;;;;;;;;;;10449991;28;20725;-65
2022/01/17 14:05:11;;;;;;;12.45;1.63;;;;;;;;;;10453522;28;20230;-66
2022/01/17 14:10:17;;;;;;;9.38;2.13;;;;;;;;;;10448926;28;20195;-66
2022/01/17 14:15:30;;;;;;;9.70;1.65;;;;;;;;;;10447225;28;20750;-65
2022/01/17 14:20:32;;;;;;;9.50;1.27;;;;;;;;;;10448423;28;20712;-65
2022/01/17 14:25:36;;;;;;;6.05;1.13;;;;;;;;;;10448598;28;20198;-65
2022/01/17 14:30:38;;;;;;;9.75;2.03;;;;;;;;;;10449792;28;20210;-65
2022/01/17 14:35:59;;;;;;;12.23;1.73;;;;;;;;;;10450699;28;20234;-65
2022/01/17 14:41:01;;;;;;;14.55;1.63;;;;;;;;;;10446504;28;20225;-66
2022/01/17 14:46:05;;;;;;;10.80;1.88;;;;;;;;;;10446999;28;20781;-65
2022/01/17 14:51:19;;;;;;;9.50;1.35;;;;;;;;;;10447782;28;20218;-65
2022/01/17 15:01:47;;;;;;;13.43;2.33;;;;;;;;;;10450236;28;20345;-66
2022/01/17 15:06:48;;;;;;;11.68;2.22;;;;;;;;;;10445026;28;20198;-65
2022/01/17 15:11:49;;;;;;;16.15;2.67;;;;;;;;;;10450580;28;20642;-66
2022/01/17 15:16:51;;;;;;;16.75;3.38;;;;;;;;;;10448215;28;20247;-66
2022/01/17 15:21:52;;;;;;;14.43;2.50;;;;;;;;;;10449023;28;20198;-65
2022/01/17 15:26:53;;;;;;;16.10;2.72;;;;;;;;;;10448794;28;20629;-65
2022/01/17 15:31:54;;;;;;;13.02;2.65;;;;;;;;;;10443604;28;20217;-66
2022/01/17 15:36:55;;;;;;;16.25;2.70;;;;;;;;;;10450953;28;20190;-66
2022/01/17 15:42:01;;;;;;;15.75;3.97;;;;;;;;;;10446994;28;20277;-66
2022/01/17 15:47:02;;;;;;;18.58;3.10;;;;;;;;;;10447408;28;20260;-66
2022/01/17 15:52:03;;;;;;;15.25;3.15;;;;;;;;;;10446286;28;20199;-65
2022/01/17 15:57:05;;;;;;;7.22;2.30;;;;;;;;;;10440021;28;20234;-65
2022/01/17 16:02:07;;;;;;;12.65;2.80;;;;;;;;;;10445278;28;20233;-65
2022/01/17 16:07:08;;;;;;;16.45;3.42;;;;;;;;;;10448277;28;20233;-65
2022/01/17 16:12:09;;;;;;;8.80;2.53;;;;;;;;;;10444699;28;20194;-66
2022/01/17 16:17:11;;;;;;;19.88;2.63;;;;;;;;;;10429066;28;20194;-66
2022/01/17 16:22:12;;;;;;;10.75;2.05;;;;;;;;;;10445373;28;20214;-66
2022/01/17 16:27:13;;;;;;;15.05;2.55;;;;;;;;;;10427126;28;20186;-66
2022/01/17 16:32:15;;;;;;;18.05;3.05;;;;;;;;;;10445131;28;20240;-66
2022/01/17 16:37:19;;;;;;;11.35;2.80;;;;;;;;;;10454488;28;20717;-65
2022/01/17 16:42:20;;;;;;;17.00;2.88;;;;;;;;;;10455895;28;20288;-66
2022/01/17 16:47:21;;;;;;;16.08;2.03;;;;;;;;;;10453735;28;20218;-66
2022/01/17 16:52:22;;;;;;;17.45;2.58;;;;;;;;;;10456057;28;20289;-66
2022/01/17 16:57:23;;;;;;;13.43;3.25;;;;;;;;;;10448555;28;20622;-66
2022/01/17 17:02:24;;;;;;;26.45;3.00;;;;;;;;;;10454604;28;20252;-66
2022/01/17 17:07:25;;;;;;;13.52;2.53;;;;;;;;;;10454083;28;20199;-66
2022/01/17 17:12:26;;;;;;;17.33;2.75;;;;;;;;;;10458187;28;20190;-66
2022/01/17 17:17:27;;;;;;;22.48;3.72;;;;;;;;;;10456474;28;20190;-66
2022/01/17 17:22:32;;;;;;;19.65;3.10;;;;;;;;;;10455061;28;20210;-66
2022/01/17 17:27:34;;;;;;;17.38;2.83;;;;;;;;;;10463042;28;20203;-66
2022/01/17 17:32:35;;;;;;;18.85;3.22;;;;;;;;;;10456331;28;20220;-66
2022/01/17 17:37:36;;;;;;;19.45;4.25;;;;;;;;;;10455423;28;20190;-66
2022/01/17 17:42:39;;;;;;;32.08;3.65;;;;;;;;;;10454114;28;20210;-66
2022/01/17 17:47:40;;;;;;;22.60;2.92;;;;;;;;;;10451879;28;21145;-66
2022/01/17 17:52:42;;;;;;;25.08;4.03;;;;;;;;;;10458016;28;20206;-66
2022/01/17 17:57:43;;;;;;;18.98;3.13;;;;;;;;;;10455098;28;20699;-66
2022/01/17 18:02:45;;;;;;;18.40;3.53;;;;;;;;;;10454576;28;20254;-66
2022/01/17 18:07:46;;;;;;;15.68;3.70;;;;;;;;;;10442496;28;20557;-67
2022/01/17 18:12:47;;;;;;;23.58;3.60;;;;;;;;;;10451599;28;20207;-66
2022/01/17 18:17:48;;;;;;;15.98;3.08;;;;;;;;;;10450573;28;20195;-66
2022/01/17 18:22:49;;;;;;;19.40;3.47;;;;;;;;;;10455544;28;20583;-66
2022/01/17 18:27:50;;;;;;;19.98;3.72;;;;;;;;;;10432798;28;20195;-66
2022/01/17 18:32:51;;;;;;;26.50;3.70;;;;;;;;;;10450097;28;20919;-65
2022/01/17 18:37:52;;;;;;;24.67;3.08;;;;;;;;;;10450362;28;20551;-65
2022/01/17 18:42:53;;;;;;;28.55;3.85;;;;;;;;;;10455342;28;20218;-65
2022/01/17 18:47:55;;;;;;;16.67;3.33;;;;;;;;;;10456892;28;20206;-64
2022/01/17 18:52:56;;;;;;;25.27;3.53;;;;;;;;;;10454180;28;20201;-66
2022/01/17 18:57:59;;;;;;;16.40;2.50;;;;;;;;;;10447413;28;20186;-65
2022/01/17 19:03:00;;;;;;;22.98;3.05;;;;;;;;;;10440399;28;20215;-64
2022/01/17 19:08:01;;;;;;;16.42;2.50;;;;;;;;;;10447810;28;20255;-66
2022/01/17 19:13:03;;;;;;;17.02;3.47;;;;;;;;;;10438332;28;20198;-66
2022/01/17 19:23:14;;;;;;;24.10;3.20;;;;;;;;;;10440323;28;20878;-65
2022/01/17 19:28:15;;;;;;;25.40;3.80;;;;;;;;;;10435744;28;20212;-66
2022/01/17 19:33:17;;;;;;;28.70;3.40;;;;;;;;;;10441546;28;20240;-66
2022/01/17 19:38:18;;;;;;;26.55;4.07;;;;;;;;;;10442679;28;20205;-66
2022/01/17 19:43:19;;;;;;;23.25;3.20;;;;;;;;;;10442087;28;20592;-66
2022/01/17 19:48:20;;;;;;;26.85;3.55;;;;;;;;;;10433173;28;21002;-67
2022/01/17 19:53:27;;;;;;;19.60;3.13;;;;;;;;;;10439191;28;20194;-66
2022/01/17 19:58:28;;;;;;;35.67;5.50;;;;;;;;;;10433713;28;20226;-66
2022/01/17 20:03:30;;;;;;;23.02;3.58;;;;;;;;;;10435251;28;20336;-66
2022/01/17 20:08:31;;;;;;;31.13;4.05;;;;;;;;;;10441227;28;20753;-66
2022/01/17 20:13:34;;;;;;;21.67;3.35;;;;;;;;;;10437544;28;20189;-65
2022/01/17 20:18:35;;;;;;;18.70;3.88;;;;;;;;;;10440818;28;20551;-65
2022/01/17 20:23:36;;;;;;;17.73;3.72;;;;;;;;;;10440572;28;20219;-66
2022/01/17 20:28:38;;;;;;;27.55;4.90;;;;;;;;;;10442207;28;20198;-67
2022/01/17 20:33:39;;;;;;;25.60;4.32;;;;;;;;;;10438488;28;20207;-67
2022/01/17 20:38:40;;;;;;;28.85;4.10;;;;;;;;;;10438171;28;20193;-67
2022/01/17 20:43:41;;;;;;;17.15;3.50;;;;;;;;;;10440114;28;20186;-67
2022/01/17 20:48:42;;;;;;;18.73;3.30;;;;;;;;;;10440568;28;20217;-66
2022/01/17 20:53:43;;;;;;;21.88;3.08;;;;;;;;;;10443063;28;20225;-65
2022/01/17 20:58:45;;;;;;;21.90;3.60;;;;;;;;;;10441178;28;20202;-65
2022/01/17 21:03:46;;;;;;;14.90;3.40;;;;;;;;;;10441638;28;20271;-64
2022/01/17 21:08:47;;;;;;;16.63;3.33;;;;;;;;;;10440540;28;20194;-64
2022/01/17 21:13:48;;;;;;;24.52;6.00;;;;;;;;;;10441076;28;20221;-67
2022/01/17 21:18:49;;;;;;;35.85;7.75;;;;;;;;;;10436530;28;20673;-67
2022/01/17 21:23:50;;;;;;;28.30;4.35;;;;;;;;;;10441964;28;20339;-66
2022/01/17 21:28:51;;;;;;;26.60;4.13;;;;;;;;;;10440059;28;20199;-66
2022/01/17 21:33:52;;;;;;;25.13;3.53;;;;;;;;;;10437802;28;20214;-66
2022/01/17 21:38:53;;;;;;;24.05;3.67;;;;;;;;;;10455688;28;20198;-66
2022/01/17 21:43:56;;;;;;;20.15;2.95;;;;;;;;;;10454286;28;20205;-66
2022/01/17 21:48:57;;;;;;;30.23;3.90;;;;;;;;;;10450517;28;20324;-66
2022/01/17 21:53:58;;;;;;;14.30;2.58;;;;;;;;;;10451356;28;20229;-66
2022/01/17 21:58:59;;;;;;;25.17;3.72;;;;;;;;;;10455738;28;20201;-66
2022/01/17 22:04:00;;;;;;;13.13;2.75;;;;;;;;;;10441296;28;20213;-66
2022/01/17 22:09:02;;;;;;;22.83;3.42;;;;;;;;;;10449178;28;20625;-66
2022/01/17 22:14:03;;;;;;;20.77;2.53;;;;;;;;;;10442287;28;20198;-66
2022/01/17 22:19:04;;;;;;;26.40;4.25;;;;;;;;;;10448339;28;20253;-66
2022/01/17 22:24:06;;;;;;;23.73;3.25;;;;;;;;;;10442713;28;20222;-66
2022/01/17 22:29:07;;;;;;;26.83;4.45;;;;;;;;;;10444562;28;20321;-66
2022/01/17 22:34:08;;;;;;;16.90;3.10;;;;;;;;;;10450090;28;20222;-66
2022/01/17 22:39:09;;;;;;;14.48;2.67;;;;;;;;;;10453787;28;20216;-66
2022/01/17 22:44:11;;;;;;;26.50;3.50;;;;;;;;;;10447861;28;21268;-67
2022/01/17 22:49:13;;;;;;;29.45;3.45;;;;;;;;;;10445985;28;20226;-66
2022/01/17 22:54:14;;;;;;;18.80;3.60;;;;;;;;;;10450300;28;20203;-66
2022/01/17 22:59:15;;;;;;;23.02;3.15;;;;;;;;;;10450865;28;20291;-66
2022/01/17 23:04:17;;;;;;;25.70;3.83;;;;;;;;;;10448303;28;20217;-64
2022/01/17 23:09:20;;;;;;;21.38;3.30;;;;;;;;;;10448064;28;20958;-66
2022/01/17 23:14:21;;;;;;;20.48;2.95;;;;;;;;;;10443417;28;20332;-66
2022/01/17 23:19:46;;;;;;;19.45;3.10;;;;;;;;;;10440643;28;20239;-66
2022/01/17 23:24:47;;;;;;;17.88;3.05;;;;;;;;;;10439340;28;20191;-67
2022/01/17 23:29:57;;;;;;;32.08;3.50;;;;;;;;;;10439265;28;20194;-66
2022/01/17 23:34:58;;;;;;;20.90;3.13;;;;;;;;;;10424182;28;20214;-66
2022/01/17 23:39:59;;;;;;;16.17;2.95;;;;;;;;;;10446665;28;20214;-66
2022/01/17 23:45:01;;;;;;;17.95;2.42;;;;;;;;;;10443500;28;20182;-66
2022/01/17 23:50:02;;;;;;;23.55;3.08;;;;;;;;;;10448214;28;20249;-66
2022/01/17 23:55:03;;;;;;;12.40;2.63;;;;;;;;;;10446168;28;20207;-66
